Предлагаем Вашему вниманию английскую версию страницы: AUTOTAF.ME UNKL - aviation weather forecast Krasnoyarsk (Emel'yanovo)

AUTOTAF UNKL - авиапрогноз Красноярск (Емельяново)

Сегодня рассвет 01:12 UTC, восход солнца 01:54 UTC,
местный полдень 06:02 UTC, заход солнца 10:11 UTC,
наступление темноты 10:53 UTC.

Краткий прогноз UNKL на 9 часов

AUTOTAF.ME UNKL 271400Z 2715/2724 24004MPS 1500 SN OVC007    
  FM271800 26003MPS 9999 -SN OVC008 
  FM272100 28003MPS 9999 OVC008

Детальный прогноз UNKL на 24 часа

AUTOTAF.ME UNKL 271400Z 2715/2815 24004MPS 1500 SN OVC007 TXM14/2803Z TNM34/2715Z  
  FM271800 26003MPS 9999 -SN OVC008 
  FM272100 28003MPS 9999 OVC008    
  BECMG 2807/2809 OVC010  
  FM281200 VRB02MPS 1500 SN OVC010 
  BECMG 2813/2815 VRB02MPS

Подробный табличный прогноз

Время (UTC) miniAUTOTAF на 3 ч WX FZLVL
M AGL
ICE TURB Т
(°С)
Тd
(°С)
f(%) QNH
(гПа)
WIND/T
12 22005G17MPS 1500 SN OVC003 SN SFC MOD FL20/FL150 MOD SFC/FL50 -15 -16 93 1016 ...
15 24004MPS 1500 SN OVC007 SN SFC MOD FL20/FL90 MOD SFC/FL40 -34 -38 69 1014 ...
18 26003MPS 9999 -SN OVC008 -SN SFC MOD FL20/FL30 MOD SFC/FL40 -25 -29 69 1016 ...
21 28003MPS 9999 OVC008 SFC MOD FL20/FL30 MOD SFC/FL40 -19 -22 74 1019 ...
28.01.2021
00 25003MPS 9999 OVC009 SFC MOD FL30/FL40 -16 -19 78 1023 ...
03 25003MPS 9999 BKN009 SFC MOD FL30/FL40 -14 -17 77 1026 ...
06 26004MPS 9999 BKN009 SFC FBL FL110/FL120 MOD SFC/FL40 -15 -19 71 1027 ...
09 27003MPS 9999 OVC010 SFC MOD FL20/FL40 MOD SFC/FL40 -19 -24 62 1028 ...
12 VRB02MPS 1500 SN OVC010 SN SFC MOD FL20/FL40 MOD SFC/FL40 -20 -23 74 1028 ...
15 VRB02MPS 1500 SN OVC008 SN SFC MOD FL150/FL160 -21 -23 80 1027 ...
18 VRB02MPS 2000 SN OVC009 SN SFC MOD FL20/FL40 -22 -25 75 1025 ...
21 VRB02MPS 1000 SN BR OVC003 SN BR SFC MOD FL20/FL50 -22 -26 74 1022 ...
29.01.2021
00 VRB02MPS 0500 SN FG IC VV002 SN FG IC SFC MOD FL20/FL30 MOD SFC/FL40 -20 -23 77 1019 ...
03 VRB02MPS 1000 SN BR OVC003 SN BR SFC FBL FL20/FL150 MOD SFC/FL40 -14 -17 82 1014 ...
06 VRB02MPS 0800 +SN OVC006 +SN SFC MOD FL150/FL160 MOD FL70/FL80 -6 -10 76 1013 ...
09 VRB02MPS 1500 SN OVC007 SN SFC FBL FL20/FL120 -7 -11 75 1015 ...


Широта 56.17293°, долгота 92.49325°, высота 287 м абс.
Средняя высота рельефа местности 395 м абс.
Прогнозы обновляются четыре раза в сутки: в 02, 08, 14, 20 ч всемирного времени.


Выбрать прогноз по другой модели Красноярск (Емельяново)
Онлайн-сводка гроз по Красноярск (Емельяново) (для РФ и ближнего зарубежья)
Карта фактических гроз в окрестностях Красноярск (Емельяново)
Динамические прогностические карты (ventusky.com)
Прогностическая карта высоты нижней границы облаков по Красноярск (Емельяново) (windy.com)
Выбрать другой город

Прогноз предназначен для личного научно-познавательного использования частными лицами
и не предназначен для принятия важных решений и выполнения реальных полётов воздушных судов

При копировании или ином использовании любых материалов данного сайта ссылка на © meteocenter.asia обязательна.

0.62/1